sensor_id;sensor_type;location;lat;lon;timestamp;P1;durP1;ratioP1;P2;durP2;ratioP2
14900;SDS011;7542;49.078;9.194;2023-05-02T00:00:46;1.97;;;1.87;;
14900;SDS011;7542;49.078;9.194;2023-05-02T00:01:48;1.98;;;1.95;;
14900;SDS011;7542;49.078;9.194;2023-05-02T00:02:50;1.90;;;1.90;;
14900;SDS011;7542;49.078;9.194;2023-05-02T00:03:53;1.73;;;1.73;;
14900;SDS011;7542;49.078;9.194;2023-05-02T00:04:55;1.80;;;1.80;;
14900;SDS011;7542;49.078;9.194;2023-05-02T00:05:58;1.77;;;1.70;;
14900;SDS011;7542;49.078;9.194;2023-05-02T00:07:01;2.23;;;2.10;;
14900;SDS011;7542;49.078;9.194;2023-05-02T00:08:03;1.90;;;1.90;;
14900;SDS011;7542;49.078;9.194;2023-05-02T00:09:06;1.90;;;1.80;;
14900;SDS011;7542;49.078;9.194;2023-05-02T00:10:08;1.90;;;1.80;;
14900;SDS011;7542;49.078;9.194;2023-05-02T00:11:10;1.67;;;1.67;;
14900;SDS011;7542;49.078;9.194;2023-05-02T00:12:13;1.77;;;1.67;;
14900;SDS011;7542;49.078;9.194;2023-05-02T00:13:15;2.10;;;2.00;;
14900;SDS011;7542;49.078;9.194;2023-05-02T00:14:17;1.67;;;1.67;;
14900;SDS011;7542;49.078;9.194;2023-05-02T00:15:19;1.92;;;1.83;;
14900;SDS011;7542;49.078;9.194;2023-05-02T00:16:21;1.87;;;1.77;;
14900;SDS011;7542;49.078;9.194;2023-05-02T00:17:23;1.90;;;1.90;;
14900;SDS011;7542;49.078;9.194;2023-05-02T00:18:25;1.73;;;1.70;;
14900;SDS011;7542;49.078;9.194;2023-05-02T00:19:27;1.90;;;1.90;;
14900;SDS011;7542;49.078;9.194;2023-05-02T00:20:29;2.00;;;1.90;;
14900;SDS011;7542;49.078;9.194;2023-05-02T00:21:31;1.77;;;1.67;;
14900;SDS011;7542;49.078;9.194;2023-05-02T00:22:34;1.60;;;1.60;;
14900;SDS011;7542;49.078;9.194;2023-05-02T00:23:36;2.10;;;2.00;;
14900;SDS011;7542;49.078;9.194;2023-05-02T00:24:38;1.87;;;1.87;;
14900;SDS011;7542;49.078;9.194;2023-05-02T00:25:43;1.63;;;1.63;;
14900;SDS011;7542;49.078;9.194;2023-05-02T00:26:46;1.95;;;1.95;;
14900;SDS011;7542;49.078;9.194;2023-05-02T00:27:48;1.85;;;1.83;;
14900;SDS011;7542;49.078;9.194;2023-05-02T00:28:51;1.80;;;1.80;;
14900;SDS011;7542;49.078;9.194;2023-05-02T00:29:53;1.50;;;1.50;;
14900;SDS011;7542;49.078;9.194;2023-05-02T00:30:55;1.80;;;1.70;;
14900;SDS011;7542;49.078;9.194;2023-05-02T00:31:57;2.00;;;1.90;;
14900;SDS011;7542;49.078;9.194;2023-05-02T00:32:59;1.90;;;1.80;;
14900;SDS011;7542;49.078;9.194;2023-05-02T00:34:01;1.90;;;1.90;;
14900;SDS011;7542;49.078;9.194;2023-05-02T00:35:03;1.70;;;1.60;;
14900;SDS011;7542;49.078;9.194;2023-05-02T00:36:13;2.03;;;2.00;;
14900;SDS011;7542;49.078;9.194;2023-05-02T00:37:19;1.97;;;1.87;;
14900;SDS011;7542;49.078;9.194;2023-05-02T00:38:21;1.70;;;1.70;;
14900;SDS011;7542;49.078;9.194;2023-05-02T00:39:23;1.73;;;1.73;;
14900;SDS011;7542;49.078;9.194;2023-05-02T00:40:25;1.70;;;1.70;;
14900;SDS011;7542;49.078;9.194;2023-05-02T00:41:27;1.60;;;1.60;;
14900;SDS011;7542;49.078;9.194;2023-05-02T00:42:29;1.70;;;1.70;;
14900;SDS011;7542;49.078;9.194;2023-05-02T00:43:36;2.03;;;1.93;;
14900;SDS011;7542;49.078;9.194;2023-05-02T00:44:42;1.77;;;1.70;;
14900;SDS011;7542;49.078;9.194;2023-05-02T00:45:44;1.50;;;1.50;;
14900;SDS011;7542;49.078;9.194;2023-05-02T00:46:47;1.93;;;1.83;;
14900;SDS011;7542;49.078;9.194;2023-05-02T00:47:49;1.63;;;1.63;;
14900;SDS011;7542;49.078;9.194;2023-05-02T00:48:51;1.87;;;1.87;;
14900;SDS011;7542;49.078;9.194;2023-05-02T00:49:55;1.83;;;1.80;;
14900;SDS011;7542;49.078;9.194;2023-05-02T00:50:58;1.70;;;1.70;;
14900;SDS011;7542;49.078;9.194;2023-05-02T00:52:05;1.83;;;1.80;;
14900;SDS011;7542;49.078;9.194;2023-05-02T00:53:08;1.90;;;1.60;;
14900;SDS011;7542;49.078;9.194;2023-05-02T00:54:14;1.87;;;1.87;;
14900;SDS011;7542;49.078;9.194;2023-05-02T00:55:16;1.63;;;1.63;;
14900;SDS011;7542;49.078;9.194;2023-05-02T00:56:19;1.80;;;1.80;;
14900;SDS011;7542;49.078;9.194;2023-05-02T00:57:21;1.60;;;1.60;;
14900;SDS011;7542;49.078;9.194;2023-05-02T00:58:23;1.60;;;1.60;;
14900;SDS011;7542;49.078;9.194;2023-05-02T00:59:27;1.80;;;1.70;;
14900;SDS011;7542;49.078;9.194;2023-05-02T01:00:39;1.73;;;1.73;;
14900;SDS011;7542;49.078;9.194;2023-05-02T01:03:40;1.63;;;1.63;;
14900;SDS011;7542;49.078;9.194;2023-05-02T01:05:29;1.70;;;1.70;;
14900;SDS011;7542;49.078;9.194;2023-05-02T01:06:55;1.50;;;1.50;;
14900;SDS011;7542;49.078;9.194;2023-05-02T01:13:30;1.60;;;1.53;;
14900;SDS011;7542;49.078;9.194;2023-05-02T01:14:40;1.47;;;1.47;;
14900;SDS011;7542;49.078;9.194;2023-05-02T01:15:44;1.77;;;1.73;;
14900;SDS011;7542;49.078;9.194;2023-05-02T01:16:52;1.73;;;1.70;;
14900;SDS011;7542;49.078;9.194;2023-05-02T01:17:57;1.30;;;1.30;;
14900;SDS011;7542;49.078;9.194;2023-05-02T01:19:03;1.50;;;1.50;;
14900;SDS011;7542;49.078;9.194;2023-05-02T01:20:13;1.63;;;1.63;;
14900;SDS011;7542;49.078;9.194;2023-05-02T01:21:23;1.77;;;1.70;;
14900;SDS011;7542;49.078;9.194;2023-05-02T01:22:28;1.87;;;1.77;;
14900;SDS011;7542;49.078;9.194;2023-05-02T01:29:58;1.70;;;1.70;;
14900;SDS011;7542;49.078;9.194;2023-05-02T01:31:04;1.70;;;1.60;;
14900;SDS011;7542;49.078;9.194;2023-05-02T01:32:08;1.60;;;1.60;;
14900;SDS011;7542;49.078;9.194;2023-05-02T01:33:13;1.50;;;1.50;;
14900;SDS011;7542;49.078;9.194;2023-05-02T01:34:19;1.73;;;1.73;;
14900;SDS011;7542;49.078;9.194;2023-05-02T01:35:23;1.60;;;1.60;;
14900;SDS011;7542;49.078;9.194;2023-05-02T01:36:29;1.80;;;1.80;;
14900;SDS011;7542;49.078;9.194;2023-05-02T01:37:35;1.67;;;1.67;;
14900;SDS011;7542;49.078;9.194;2023-05-02T01:38:40;1.30;;;1.30;;
14900;SDS011;7542;49.078;9.194;2023-05-02T01:39:44;1.70;;;1.70;;
14900;SDS011;7542;49.078;9.194;2023-05-02T01:40:51;1.40;;;1.40;;
14900;SDS011;7542;49.078;9.194;2023-05-02T01:41:55;1.40;;;1.40;;
14900;SDS011;7542;49.078;9.194;2023-05-02T01:43:02;1.57;;;1.57;;
14900;SDS011;7542;49.078;9.194;2023-05-02T01:44:09;1.70;;;1.70;;
14900;SDS011;7542;49.078;9.194;2023-05-02T01:45:13;1.50;;;1.40;;
14900;SDS011;7542;49.078;9.194;2023-05-02T01:46:16;1.50;;;1.50;;
14900;SDS011;7542;49.078;9.194;2023-05-02T01:47:21;1.43;;;1.43;;
14900;SDS011;7542;49.078;9.194;2023-05-02T01:48:25;1.50;;;1.50;;
14900;SDS011;7542;49.078;9.194;2023-05-02T01:49:29;1.53;;;1.53;;
14900;SDS011;7542;49.078;9.194;2023-05-02T01:50:35;1.50;;;1.50;;
14900;SDS011;7542;49.078;9.194;2023-05-02T01:51:43;1.63;;;1.63;;
14900;SDS011;7542;49.078;9.194;2023-05-02T01:52:50;1.57;;;1.57;;
14900;SDS011;7542;49.078;9.194;2023-05-02T01:53:55;1.40;;;1.40;;
14900;SDS011;7542;49.078;9.194;2023-05-02T01:55:01;1.60;;;1.60;;
14900;SDS011;7542;49.078;9.194;2023-05-02T01:56:06;1.50;;;1.50;;
14900;SDS011;7542;49.078;9.194;2023-05-02T01:57:09;1.50;;;1.50;;
14900;SDS011;7542;49.078;9.194;2023-05-02T01:58:13;1.53;;;1.53;;
14900;SDS011;7542;49.078;9.194;2023-05-02T01:59:18;1.80;;;1.70;;
14900;SDS011;7542;49.078;9.194;2023-05-02T02:00:23;1.40;;;1.40;;
14900;SDS011;7542;49.078;9.194;2023-05-02T02:01:26;1.30;;;1.30;;
14900;SDS011;7542;49.078;9.194;2023-05-02T02:02:31;1.50;;;1.50;;
14900;SDS011;7542;49.078;9.194;2023-05-02T02:03:36;1.50;;;1.50;;
14900;SDS011;7542;49.078;9.194;2023-05-02T02:04:38;1.57;;;1.57;;
14900;SDS011;7542;49.078;9.194;2023-05-02T02:05:41;1.60;;;1.50;;
14900;SDS011;7542;49.078;9.194;2023-05-02T02:06:50;1.40;;;1.40;;
14900;SDS011;7542;49.078;9.194;2023-05-02T02:07:58;1.40;;;1.40;;
14900;SDS011;7542;49.078;9.194;2023-05-02T02:09:00;1.33;;;1.33;;
14900;SDS011;7542;49.078;9.194;2023-05-02T02:10:03;1.50;;;1.50;;
14900;SDS011;7542;49.078;9.194;2023-05-02T02:11:08;1.60;;;1.60;;
14900;SDS011;7542;49.078;9.194;2023-05-02T02:12:37;1.53;;;1.53;;
14900;SDS011;7542;49.078;9.194;2023-05-02T02:13:54;1.60;;;1.50;;
14900;SDS011;7542;49.078;9.194;2023-05-02T02:16:22;1.40;;;1.40;;
14900;SDS011;7542;49.078;9.194;2023-05-02T02:17:38;1.40;;;1.40;;
14900;SDS011;7542;49.078;9.194;2023-05-02T02:18:46;1.50;;;1.50;;
14900;SDS011;7542;49.078;9.194;2023-05-02T02:19:49;1.60;;;1.60;;
14900;SDS011;7542;49.078;9.194;2023-05-02T02:20:57;1.60;;;1.60;;
14900;SDS011;7542;49.078;9.194;2023-05-02T02:22:01;1.60;;;1.50;;
14900;SDS011;7542;49.078;9.194;2023-05-02T02:23:07;1.50;;;1.50;;
14900;SDS011;7542;49.078;9.194;2023-05-02T02:24:12;1.43;;;1.43;;
14900;SDS011;7542;49.078;9.194;2023-05-02T02:25:17;1.37;;;1.37;;
14900;SDS011;7542;49.078;9.194;2023-05-02T02:26:20;1.27;;;1.27;;
14900;SDS011;7542;49.078;9.194;2023-05-02T02:27:24;1.63;;;1.63;;
14900;SDS011;7542;49.078;9.194;2023-05-02T02:28:26;1.50;;;1.50;;
14900;SDS011;7542;49.078;9.194;2023-05-02T02:29:30;1.30;;;1.30;;
14900;SDS011;7542;49.078;9.194;2023-05-02T02:30:32;1.50;;;1.50;;
14900;SDS011;7542;49.078;9.194;2023-05-02T02:31:35;1.20;;;1.20;;
14900;SDS011;7542;49.078;9.194;2023-05-02T02:32:39;1.20;;;1.20;;
14900;SDS011;7542;49.078;9.194;2023-05-02T02:33:41;1.37;;;1.37;;
14900;SDS011;7542;49.078;9.194;2023-05-02T02:34:43;1.30;;;1.30;;
14900;SDS011;7542;49.078;9.194;2023-05-02T02:35:47;1.50;;;1.50;;
14900;SDS011;7542;49.078;9.194;2023-05-02T02:37:04;1.50;;;1.50;;
14900;SDS011;7542;49.078;9.194;2023-05-02T02:39:08;1.20;;;1.20;;
14900;SDS011;7542;49.078;9.194;2023-05-02T02:40:04;1.33;;;1.33;;
14900;SDS011;7542;49.078;9.194;2023-05-02T02:41:26;1.50;;;1.50;;
14900;SDS011;7542;49.078;9.194;2023-05-02T02:47:26;1.20;;;1.20;;
14900;SDS011;7542;49.078;9.194;2023-05-02T02:50:19;1.57;;;1.57;;
14900;SDS011;7542;49.078;9.194;2023-05-02T02:51:31;1.30;;;1.30;;
14900;SDS011;7542;49.078;9.194;2023-05-02T02:52:48;1.73;;;1.73;;
14900;SDS011;7542;49.078;9.194;2023-05-02T02:54:16;1.77;;;1.67;;
14900;SDS011;7542;49.078;9.194;2023-05-02T02:55:54;1.80;;;1.70;;
14900;SDS011;7542;49.078;9.194;2023-05-02T02:57:03;1.43;;;1.43;;
14900;SDS011;7542;49.078;9.194;2023-05-02T03:00:18;1.10;;;1.10;;
14900;SDS011;7542;49.078;9.194;2023-05-02T03:01:23;1.37;;;1.37;;
14900;SDS011;7542;49.078;9.194;2023-05-02T03:02:29;1.30;;;1.30;;
14900;SDS011;7542;49.078;9.194;2023-05-02T03:03:34;1.40;;;1.40;;
14900;SDS011;7542;49.078;9.194;2023-05-02T03:04:40;1.47;;;1.47;;
14900;SDS011;7542;49.078;9.194;2023-05-02T03:05:44;1.30;;;1.30;;
14900;SDS011;7542;49.078;9.194;2023-05-02T03:06:48;1.40;;;1.40;;
14900;SDS011;7542;49.078;9.194;2023-05-02T03:07:50;1.30;;;1.30;;
14900;SDS011;7542;49.078;9.194;2023-05-02T03:08:53;1.30;;;1.30;;
14900;SDS011;7542;49.078;9.194;2023-05-02T03:09:55;1.17;;;1.17;;
14900;SDS011;7542;49.078;9.194;2023-05-02T03:10:57;1.50;;;1.50;;
14900;SDS011;7542;49.078;9.194;2023-05-02T03:11:59;1.10;;;1.10;;
14900;SDS011;7542;49.078;9.194;2023-05-02T03:13:01;1.40;;;1.40;;
14900;SDS011;7542;49.078;9.194;2023-05-02T03:14:03;1.63;;;1.50;;
14900;SDS011;7542;49.078;9.194;2023-05-02T03:16:28;1.30;;;1.30;;
14900;SDS011;7542;49.078;9.194;2023-05-02T03:17:37;1.33;;;1.33;;
14900;SDS011;7542;49.078;9.194;2023-05-02T03:18:39;1.30;;;1.30;;
14900;SDS011;7542;49.078;9.194;2023-05-02T03:19:42;1.30;;;1.30;;
14900;SDS011;7542;49.078;9.194;2023-05-02T03:20:44;1.30;;;1.30;;
14900;SDS011;7542;49.078;9.194;2023-05-02T03:21:46;1.60;;;1.60;;
14900;SDS011;7542;49.078;9.194;2023-05-02T03:22:49;1.20;;;1.20;;
14900;SDS011;7542;49.078;9.194;2023-05-02T03:23:51;1.20;;;1.20;;
14900;SDS011;7542;49.078;9.194;2023-05-02T03:24:53;1.10;;;1.10;;
14900;SDS011;7542;49.078;9.194;2023-05-02T03:25:55;1.50;;;1.40;;
14900;SDS011;7542;49.078;9.194;2023-05-02T03:26:58;1.60;;;1.60;;
14900;SDS011;7542;49.078;9.194;2023-05-02T03:28:00;1.20;;;1.20;;
14900;SDS011;7542;49.078;9.194;2023-05-02T03:29:02;1.60;;;1.53;;
14900;SDS011;7542;49.078;9.194;2023-05-02T03:30:04;1.20;;;1.20;;
14900;SDS011;7542;49.078;9.194;2023-05-02T03:31:06;1.20;;;1.20;;
14900;SDS011;7542;49.078;9.194;2023-05-02T03:32:08;1.47;;;1.47;;
14900;SDS011;7542;49.078;9.194;2023-05-02T03:33:11;1.40;;;1.40;;
14900;SDS011;7542;49.078;9.194;2023-05-02T03:34:13;1.27;;;1.27;;
14900;SDS011;7542;49.078;9.194;2023-05-02T03:35:15;1.20;;;1.20;;
14900;SDS011;7542;49.078;9.194;2023-05-02T03:36:16;1.20;;;1.20;;
14900;SDS011;7542;49.078;9.194;2023-05-02T03:37:18;1.50;;;1.50;;
14900;SDS011;7542;49.078;9.194;2023-05-02T03:38:20;1.50;;;1.50;;
14900;SDS011;7542;49.078;9.194;2023-05-02T03:39:22;1.23;;;1.23;;
14900;SDS011;7542;49.078;9.194;2023-05-02T03:40:25;1.40;;;1.40;;
14900;SDS011;7542;49.078;9.194;2023-05-02T03:41:28;1.40;;;1.40;;
14900;SDS011;7542;49.078;9.194;2023-05-02T03:42:30;1.43;;;1.40;;
14900;SDS011;7542;49.078;9.194;2023-05-02T03:43:32;1.30;;;1.30;;
14900;SDS011;7542;49.078;9.194;2023-05-02T03:44:34;1.40;;;1.40;;
14900;SDS011;7542;49.078;9.194;2023-05-02T03:45:36;1.10;;;1.10;;
14900;SDS011;7542;49.078;9.194;2023-05-02T03:46:38;1.20;;;1.20;;
14900;SDS011;7542;49.078;9.194;2023-05-02T03:47:39;1.17;;;1.17;;
14900;SDS011;7542;49.078;9.194;2023-05-02T03:48:42;1.40;;;1.40;;
14900;SDS011;7542;49.078;9.194;2023-05-02T03:49:46;1.50;;;1.50;;
14900;SDS011;7542;49.078;9.194;2023-05-02T03:50:49;1.10;;;1.10;;
14900;SDS011;7542;49.078;9.194;2023-05-02T03:51:51;1.47;;;1.47;;
14900;SDS011;7542;49.078;9.194;2023-05-02T03:52:53;1.20;;;1.20;;
14900;SDS011;7542;49.078;9.194;2023-05-02T03:53:55;1.40;;;1.40;;
14900;SDS011;7542;49.078;9.194;2023-05-02T03:54:56;1.20;;;1.20;;
14900;SDS011;7542;49.078;9.194;2023-05-02T03:55:58;1.40;;;1.40;;
14900;SDS011;7542;49.078;9.194;2023-05-02T03:57:00;1.30;;;1.30;;
14900;SDS011;7542;49.078;9.194;2023-05-02T03:58:05;1.37;;;1.37;;
14900;SDS011;7542;49.078;9.194;2023-05-02T03:59:08;1.33;;;1.33;;
14900;SDS011;7542;49.078;9.194;2023-05-02T04:00:10;1.30;;;1.30;;
14900;SDS011;7542;49.078;9.194;2023-05-02T04:01:15;1.40;;;1.40;;
14900;SDS011;7542;49.078;9.194;2023-05-02T04:02:17;1.20;;;1.20;;
14900;SDS011;7542;49.078;9.194;2023-05-02T04:03:20;1.33;;;1.33;;
14900;SDS011;7542;49.078;9.194;2023-05-02T04:04:23;1.43;;;1.43;;
14900;SDS011;7542;49.078;9.194;2023-05-02T04:05:25;1.30;;;1.30;;
14900;SDS011;7542;49.078;9.194;2023-05-02T04:06:27;1.17;;;1.17;;
14900;SDS011;7542;49.078;9.194;2023-05-02T04:07:29;1.30;;;1.30;;
14900;SDS011;7542;49.078;9.194;2023-05-02T04:08:31;1.27;;;1.27;;
14900;SDS011;7542;49.078;9.194;2023-05-02T04:09:33;1.30;;;1.30;;
14900;SDS011;7542;49.078;9.194;2023-05-02T04:10:35;1.40;;;1.40;;
14900;SDS011;7542;49.078;9.194;2023-05-02T04:11:37;1.10;;;1.10;;
14900;SDS011;7542;49.078;9.194;2023-05-02T04:12:39;1.00;;;1.00;;
14900;SDS011;7542;49.078;9.194;2023-05-02T04:13:41;1.20;;;1.20;;
14900;SDS011;7542;49.078;9.194;2023-05-02T04:14:42;1.20;;;1.20;;
14900;SDS011;7542;49.078;9.194;2023-05-02T04:15:44;1.30;;;1.30;;
14900;SDS011;7542;49.078;9.194;2023-05-02T04:16:50;1.37;;;1.37;;
14900;SDS011;7542;49.078;9.194;2023-05-02T04:17:54;1.13;;;1.13;;
14900;SDS011;7542;49.078;9.194;2023-05-02T04:18:58;1.20;;;1.20;;
14900;SDS011;7542;49.078;9.194;2023-05-02T04:20:00;1.07;;;1.07;;
14900;SDS011;7542;49.078;9.194;2023-05-02T04:21:06;1.30;;;1.30;;
14900;SDS011;7542;49.078;9.194;2023-05-02T04:22:10;1.30;;;1.30;;
14900;SDS011;7542;49.078;9.194;2023-05-02T04:23:12;1.20;;;1.20;;
14900;SDS011;7542;49.078;9.194;2023-05-02T04:24:14;1.00;;;1.00;;
14900;SDS011;7542;49.078;9.194;2023-05-02T04:25:17;1.20;;;1.20;;
14900;SDS011;7542;49.078;9.194;2023-05-02T04:26:19;1.20;;;1.20;;
14900;SDS011;7542;49.078;9.194;2023-05-02T04:27:21;1.30;;;1.20;;
14900;SDS011;7542;49.078;9.194;2023-05-02T04:28:24;0.97;;;0.97;;
14900;SDS011;7542;49.078;9.194;2023-05-02T04:29:26;1.13;;;1.13;;
14900;SDS011;7542;49.078;9.194;2023-05-02T04:30:28;1.33;;;1.33;;
14900;SDS011;7542;49.078;9.194;2023-05-02T04:31:31;1.10;;;1.10;;
14900;SDS011;7542;49.078;9.194;2023-05-02T04:32:34;1.20;;;1.20;;
14900;SDS011;7542;49.078;9.194;2023-05-02T04:33:36;1.00;;;1.00;;
14900;SDS011;7542;49.078;9.194;2023-05-02T04:34:38;1.00;;;1.00;;
14900;SDS011;7542;49.078;9.194;2023-05-02T04:35:40;1.00;;;1.00;;
14900;SDS011;7542;49.078;9.194;2023-05-02T04:36:45;1.00;;;1.00;;
14900;SDS011;7542;49.078;9.194;2023-05-02T04:37:47;1.20;;;1.20;;
14900;SDS011;7542;49.078;9.194;2023-05-02T04:38:50;1.30;;;1.30;;
14900;SDS011;7542;49.078;9.194;2023-05-02T04:39:52;1.10;;;1.10;;
14900;SDS011;7542;49.078;9.194;2023-05-02T04:40:54;1.20;;;1.20;;
14900;SDS011;7542;49.078;9.194;2023-05-02T04:41:56;1.30;;;1.30;;
14900;SDS011;7542;49.078;9.194;2023-05-02T04:42:58;1.10;;;1.10;;
14900;SDS011;7542;49.078;9.194;2023-05-02T04:44:00;1.43;;;1.43;;
14900;SDS011;7542;49.078;9.194;2023-05-02T04:45:02;1.20;;;1.20;;
14900;SDS011;7542;49.078;9.194;2023-05-02T04:46:04;1.30;;;1.30;;
14900;SDS011;7542;49.078;9.194;2023-05-02T04:47:06;1.30;;;1.30;;
14900;SDS011;7542;49.078;9.194;2023-05-02T04:48:08;1.17;;;1.17;;
14900;SDS011;7542;49.078;9.194;2023-05-02T04:49:10;0.90;;;0.90;;
14900;SDS011;7542;49.078;9.194;2023-05-02T04:50:12;1.20;;;1.20;;
14900;SDS011;7542;49.078;9.194;2023-05-02T04:51:14;1.30;;;1.30;;
14900;SDS011;7542;49.078;9.194;2023-05-02T04:52:17;1.00;;;1.00;;
14900;SDS011;7542;49.078;9.194;2023-05-02T04:53:22;1.20;;;1.20;;
14900;SDS011;7542;49.078;9.194;2023-05-02T04:54:24;1.33;;;1.17;;
14900;SDS011;7542;49.078;9.194;2023-05-02T04:55:26;1.30;;;1.30;;
14900;SDS011;7542;49.078;9.194;2023-05-02T04:56:28;1.17;;;1.17;;
14900;SDS011;7542;49.078;9.194;2023-05-02T04:57:29;1.10;;;1.10;;
14900;SDS011;7542;49.078;9.194;2023-05-02T04:58:31;0.90;;;0.90;;
14900;SDS011;7542;49.078;9.194;2023-05-02T04:59:35;1.30;;;1.30;;
14900;SDS011;7542;49.078;9.194;2023-05-02T05:00:38;1.30;;;1.30;;
14900;SDS011;7542;49.078;9.194;2023-05-02T05:01:40;1.20;;;0.97;;
14900;SDS011;7542;49.078;9.194;2023-05-02T05:02:43;1.10;;;1.10;;
14900;SDS011;7542;49.078;9.194;2023-05-02T05:03:45;1.00;;;1.00;;
14900;SDS011;7542;49.078;9.194;2023-05-02T05:04:47;1.10;;;1.10;;
14900;SDS011;7542;49.078;9.194;2023-05-02T05:05:49;1.10;;;1.10;;
14900;SDS011;7542;49.078;9.194;2023-05-02T05:06:51;1.23;;;1.23;;
14900;SDS011;7542;49.078;9.194;2023-05-02T05:07:53;1.10;;;1.10;;
14900;SDS011;7542;49.078;9.194;2023-05-02T05:08:55;1.53;;;1.53;;
14900;SDS011;7542;49.078;9.194;2023-05-02T05:09:57;1.30;;;1.30;;
14900;SDS011;7542;49.078;9.194;2023-05-02T05:11:00;1.30;;;1.30;;
14900;SDS011;7542;49.078;9.194;2023-05-02T05:12:02;1.43;;;1.40;;
14900;SDS011;7542;49.078;9.194;2023-05-02T05:13:04;1.60;;;1.50;;
14900;SDS011;7542;49.078;9.194;2023-05-02T05:14:07;1.40;;;1.20;;
14900;SDS011;7542;49.078;9.194;2023-05-02T05:15:09;1.60;;;1.30;;
14900;SDS011;7542;49.078;9.194;2023-05-02T05:16:11;1.10;;;1.10;;
14900;SDS011;7542;49.078;9.194;2023-05-02T05:17:13;1.20;;;1.20;;
14900;SDS011;7542;49.078;9.194;2023-05-02T05:18:15;1.30;;;1.30;;
14900;SDS011;7542;49.078;9.194;2023-05-02T05:19:18;1.30;;;1.30;;
14900;SDS011;7542;49.078;9.194;2023-05-02T05:20:20;1.20;;;1.20;;
14900;SDS011;7542;49.078;9.194;2023-05-02T05:21:22;1.00;;;1.00;;
14900;SDS011;7542;49.078;9.194;2023-05-02T05:22:24;1.20;;;1.20;;
14900;SDS011;7542;49.078;9.194;2023-05-02T05:23:26;1.17;;;1.17;;
14900;SDS011;7542;49.078;9.194;2023-05-02T05:24:28;1.33;;;1.33;;
14900;SDS011;7542;49.078;9.194;2023-05-02T05:25:30;1.20;;;1.20;;
14900;SDS011;7542;49.078;9.194;2023-05-02T05:26:34;1.17;;;1.17;;
14900;SDS011;7542;49.078;9.194;2023-05-02T05:27:36;1.40;;;1.30;;
14900;SDS011;7542;49.078;9.194;2023-05-02T05:28:38;1.27;;;1.27;;
14900;SDS011;7542;49.078;9.194;2023-05-02T05:29:40;1.20;;;1.20;;
14900;SDS011;7542;49.078;9.194;2023-05-02T05:30:42;1.27;;;1.27;;
14900;SDS011;7542;49.078;9.194;2023-05-02T05:31:44;1.40;;;1.40;;
14900;SDS011;7542;49.078;9.194;2023-05-02T05:32:46;1.20;;;1.20;;
14900;SDS011;7542;49.078;9.194;2023-05-02T05:33:48;1.17;;;1.17;;
14900;SDS011;7542;49.078;9.194;2023-05-02T05:34:51;1.33;;;1.33;;
14900;SDS011;7542;49.078;9.194;2023-05-02T05:35:53;1.23;;;1.20;;
14900;SDS011;7542;49.078;9.194;2023-05-02T05:36:55;1.20;;;1.20;;
14900;SDS011;7542;49.078;9.194;2023-05-02T05:37:57;1.10;;;1.10;;
14900;SDS011;7542;49.078;9.194;2023-05-02T05:38:59;2.00;;;1.10;;
14900;SDS011;7542;49.078;9.194;2023-05-02T05:40:01;1.50;;;1.50;;
14900;SDS011;7542;49.078;9.194;2023-05-02T05:41:04;1.30;;;1.27;;
14900;SDS011;7542;49.078;9.194;2023-05-02T05:42:08;1.40;;;1.10;;
14900;SDS011;7542;49.078;9.194;2023-05-02T05:43:10;1.30;;;1.30;;
14900;SDS011;7542;49.078;9.194;2023-05-02T05:44:12;1.27;;;1.27;;
14900;SDS011;7542;49.078;9.194;2023-05-02T05:45:14;3.50;;;1.47;;
14900;SDS011;7542;49.078;9.194;2023-05-02T05:46:17;1.10;;;1.10;;
14900;SDS011;7542;49.078;9.194;2023-05-02T05:47:19;1.30;;;1.30;;
14900;SDS011;7542;49.078;9.194;2023-05-02T05:48:24;1.37;;;1.37;;
14900;SDS011;7542;49.078;9.194;2023-05-02T05:49:26;1.60;;;1.50;;
14900;SDS011;7542;49.078;9.194;2023-05-02T05:50:28;1.80;;;1.30;;
14900;SDS011;7542;49.078;9.194;2023-05-02T05:51:30;3.13;;;1.37;;
14900;SDS011;7542;49.078;9.194;2023-05-02T05:52:32;1.47;;;1.37;;
14900;SDS011;7542;49.078;9.194;2023-05-02T05:53:34;1.20;;;1.20;;
14900;SDS011;7542;49.078;9.194;2023-05-02T05:54:36;1.27;;;1.20;;
14900;SDS011;7542;49.078;9.194;2023-05-02T05:55:38;1.37;;;1.27;;
14900;SDS011;7542;49.078;9.194;2023-05-02T05:56:42;1.33;;;1.33;;
14900;SDS011;7542;49.078;9.194;2023-05-02T05:57:45;1.30;;;1.30;;
14900;SDS011;7542;49.078;9.194;2023-05-02T05:58:47;1.30;;;1.30;;
14900;SDS011;7542;49.078;9.194;2023-05-02T05:59:49;1.40;;;1.40;;
14900;SDS011;7542;49.078;9.194;2023-05-02T06:00:51;1.57;;;1.50;;
14900;SDS011;7542;49.078;9.194;2023-05-02T06:01:53;1.83;;;1.60;;
14900;SDS011;7542;49.078;9.194;2023-05-02T06:02:55;1.80;;;1.70;;
14900;SDS011;7542;49.078;9.194;2023-05-02T06:03:57;2.00;;;1.40;;
14900;SDS011;7542;49.078;9.194;2023-05-02T06:04:59;2.17;;;1.47;;
14900;SDS011;7542;49.078;9.194;2023-05-02T06:06:02;1.47;;;1.33;;
14900;SDS011;7542;49.078;9.194;2023-05-02T06:07:04;1.23;;;1.23;;
14900;SDS011;7542;49.078;9.194;2023-05-02T06:08:06;1.33;;;1.30;;
14900;SDS011;7542;49.078;9.194;2023-05-02T06:09:09;2.00;;;1.53;;
14900;SDS011;7542;49.078;9.194;2023-05-02T06:10:12;1.50;;;1.50;;
14900;SDS011;7542;49.078;9.194;2023-05-02T06:11:16;1.60;;;1.50;;
14900;SDS011;7542;49.078;9.194;2023-05-02T06:12:18;3.20;;;1.50;;
14900;SDS011;7542;49.078;9.194;2023-05-02T06:13:21;2.13;;;1.80;;
14900;SDS011;7542;49.078;9.194;2023-05-02T06:14:23;1.30;;;1.27;;
14900;SDS011;7542;49.078;9.194;2023-05-02T06:15:25;1.53;;;1.43;;
14900;SDS011;7542;49.078;9.194;2023-05-02T06:16:27;1.53;;;1.43;;
14900;SDS011;7542;49.078;9.194;2023-05-02T06:17:29;1.30;;;1.30;;
14900;SDS011;7542;49.078;9.194;2023-05-02T06:18:31;1.40;;;1.30;;
14900;SDS011;7542;49.078;9.194;2023-05-02T06:19:33;1.47;;;1.37;;
14900;SDS011;7542;49.078;9.194;2023-05-02T06:20:36;1.40;;;1.30;;
14900;SDS011;7542;49.078;9.194;2023-05-02T06:21:37;1.40;;;1.40;;
14900;SDS011;7542;49.078;9.194;2023-05-02T06:22:39;1.60;;;1.47;;
14900;SDS011;7542;49.078;9.194;2023-05-02T06:23:41;1.70;;;1.60;;
14900;SDS011;7542;49.078;9.194;2023-05-02T06:24:43;1.63;;;1.53;;
14900;SDS011;7542;49.078;9.194;2023-05-02T06:25:45;1.33;;;1.33;;
14900;SDS011;7542;49.078;9.194;2023-05-02T06:26:48;1.57;;;1.30;;
14900;SDS011;7542;49.078;9.194;2023-05-02T06:27:51;1.93;;;1.60;;
14900;SDS011;7542;49.078;9.194;2023-05-02T06:28:53;1.37;;;1.37;;
14900;SDS011;7542;49.078;9.194;2023-05-02T06:29:56;1.60;;;1.50;;
14900;SDS011;7542;49.078;9.194;2023-05-02T06:31:00;1.73;;;1.60;;
14900;SDS011;7542;49.078;9.194;2023-05-02T06:32:04;1.57;;;1.47;;
14900;SDS011;7542;49.078;9.194;2023-05-02T06:33:07;2.33;;;1.70;;
14900;SDS011;7542;49.078;9.194;2023-05-02T06:34:09;2.80;;;1.47;;
14900;SDS011;7542;49.078;9.194;2023-05-02T06:35:11;3.13;;;1.50;;
14900;SDS011;7542;49.078;9.194;2023-05-02T06:36:13;2.27;;;1.50;;
14900;SDS011;7542;49.078;9.194;2023-05-02T06:37:15;1.60;;;1.50;;
14900;SDS011;7542;49.078;9.194;2023-05-02T06:38:17;1.77;;;1.70;;
14900;SDS011;7542;49.078;9.194;2023-05-02T06:39:20;1.90;;;1.80;;
14900;SDS011;7542;49.078;9.194;2023-05-02T06:40:22;2.47;;;1.50;;
14900;SDS011;7542;49.078;9.194;2023-05-02T06:41:24;4.00;;;1.43;;
14900;SDS011;7542;49.078;9.194;2023-05-02T06:42:27;1.73;;;1.50;;
14900;SDS011;7542;49.078;9.194;2023-05-02T06:43:29;1.50;;;1.50;;
14900;SDS011;7542;49.078;9.194;2023-05-02T06:44:31;1.67;;;1.50;;
14900;SDS011;7542;49.078;9.194;2023-05-02T06:45:33;1.40;;;1.40;;
14900;SDS011;7542;49.078;9.194;2023-05-02T06:46:35;3.33;;;1.63;;
14900;SDS011;7542;49.078;9.194;2023-05-02T06:47:37;1.47;;;1.37;;
14900;SDS011;7542;49.078;9.194;2023-05-02T06:48:39;1.30;;;1.30;;
14900;SDS011;7542;49.078;9.194;2023-05-02T06:49:41;2.53;;;1.40;;
14900;SDS011;7542;49.078;9.194;2023-05-02T06:50:43;1.90;;;1.80;;
14900;SDS011;7542;49.078;9.194;2023-05-02T06:51:45;1.93;;;1.50;;
14900;SDS011;7542;49.078;9.194;2023-05-02T06:52:47;1.70;;;1.60;;
14900;SDS011;7542;49.078;9.194;2023-05-02T06:53:49;2.87;;;1.50;;
14900;SDS011;7542;49.078;9.194;2023-05-02T06:54:51;1.67;;;1.53;;
14900;SDS011;7542;49.078;9.194;2023-05-02T06:55:53;2.20;;;1.50;;